createdAt,value
2023-03-27T00:00:28.820Z,100015.88
2023-03-27T00:02:32.952Z,100018.56
2023-03-27T00:04:35.989Z,100019.31
2023-03-27T00:06:40.374Z,100022.06
2023-03-27T00:08:43.524Z,100022.91
2023-03-27T00:10:49.526Z,100033.50
2023-03-27T00:12:53.862Z,100038.69
2023-03-27T00:14:57.073Z,100039.56
2023-03-27T00:17:00.275Z,100053.53
2023-03-27T00:19:03.989Z,100057.81
2023-03-27T00:21:07.388Z,100056.16
2023-03-27T00:23:10.375Z,100063.97
2023-03-27T00:25:13.355Z,100069.28
2023-03-27T00:27:16.210Z,100076.28
2023-03-27T00:29:20.785Z,100078.09
2023-03-27T00:31:23.963Z,100080.63
2023-03-27T00:33:27.774Z,100078.97
2023-03-27T00:35:31.476Z,100079.91
2023-03-27T00:37:34.351Z,100082.47
2023-03-27T00:39:37.232Z,100087.75
2023-03-27T00:41:40.072Z,100087.84
2023-03-27T00:43:44.990Z,100093.13
2023-03-27T00:45:50.860Z,100095.78
2023-03-27T00:47:57.566Z,100088.94
2023-03-27T00:50:02.928Z,100098.56
2023-03-27T00:52:07.061Z,100105.50
2023-03-27T00:54:10.878Z,100105.56
2023-03-27T00:56:15.913Z,100103.88
2023-03-27T00:58:21.574Z,100110.94
2023-03-27T01:00:24.889Z,100109.22
2023-03-27T01:02:29.765Z,100113.53
2023-03-27T01:04:33.102Z,100124.00
2023-03-27T01:06:36.551Z,100117.19
2023-03-27T01:08:40.004Z,100116.31
2023-03-27T01:10:51.291Z,100121.63
2023-03-27T01:13:00.341Z,100120.69
2023-03-27T01:15:14.439Z,100125.31
2023-03-27T01:17:32.743Z,100116.47
2023-03-27T01:20:10.003Z,100126.88
2023-03-27T01:22:25.582Z,100132.06
2023-03-27T01:25:07.785Z,100128.72
2023-03-27T01:27:18.718Z,100142.72
2023-03-27T01:29:23.219Z,100145.34
2023-03-27T01:31:41.228Z,100147.91
2023-03-27T01:34:12.528Z,100154.88
2023-03-27T01:36:49.822Z,100160.06
2023-03-27T01:39:13.450Z,100167.00
2023-03-27T01:41:23.614Z,100167.06
2023-03-27T01:43:32.096Z,100175.78
2023-03-27T01:45:37.991Z,100174.13
2023-03-27T01:47:48.717Z,100179.44
2023-03-27T01:49:54.705Z,100180.31
2023-03-27T01:52:01.182Z,100182.91
2023-03-27T01:54:09.580Z,100186.41
2023-03-27T01:56:18.333Z,100190.69
2023-03-27T01:58:24.604Z,100190.69
2023-03-27T02:00:52.151Z,100201.13
2023-03-27T02:02:55.658Z,100201.91
2023-03-27T02:05:02.428Z,100201.94
2023-03-27T02:07:11.921Z,100204.56
2023-03-27T02:09:19.286Z,100205.59
2023-03-27T02:11:25.705Z,100218.56
2023-03-27T02:13:36.130Z,100214.16
2023-03-27T02:15:41.905Z,100217.66
2023-03-27T02:17:48.248Z,100221.19
2023-03-27T02:19:56.163Z,100221.25
2023-03-27T02:21:59.924Z,100223.81
2023-03-27T02:24:03.640Z,100229.91
2023-03-27T02:26:07.091Z,100227.34
2023-03-27T02:28:35.127Z,100222.13
2023-03-27T02:30:41.833Z,100222.19
2023-03-27T02:32:49.708Z,100230.00
2023-03-27T02:35:02.946Z,100229.13
2023-03-27T02:37:12.367Z,100236.13
2023-03-27T02:39:40.784Z,100244.03
2023-03-27T02:41:47.572Z,100250.22
2023-03-27T02:44:15.953Z,100253.66
2023-03-27T02:46:32.489Z,100260.66
2023-03-27T02:48:36.523Z,100265.88
2023-03-27T02:50:42.692Z,100269.38
2023-03-27T02:52:52.474Z,100268.50
2023-03-27T02:54:59.852Z,100272.00
2023-03-27T02:57:05.732Z,100284.16
2023-03-27T02:59:35.450Z,100287.69
2023-03-27T03:01:40.564Z,100294.66
2023-03-27T03:03:57.842Z,100306.00
2023-03-27T03:06:14.192Z,100304.47
2023-03-27T03:08:21.636Z,100307.06
2023-03-27T03:10:26.385Z,100306.50
2023-03-27T03:12:29.605Z,100314.16
2023-03-27T03:14:37.040Z,100309.88
2023-03-27T03:16:40.105Z,100315.13
2023-03-27T03:18:43.196Z,100315.19
2023-03-27T03:20:46.128Z,100312.50
2023-03-27T03:22:49.325Z,100313.41
2023-03-27T03:24:54.061Z,100312.56
2023-03-27T03:27:03.854Z,100313.63
2023-03-27T03:29:11.927Z,100319.56
2023-03-27T03:31:19.570Z,100323.00
2023-03-27T03:33:22.792Z,100328.25
2023-03-27T03:35:26.420Z,100335.28
2023-03-27T03:37:29.521Z,100333.47
2023-03-27T03:39:33.982Z,100343.97
2023-03-27T03:41:37.044Z,100347.50
2023-03-27T03:43:40.774Z,100345.69
2023-03-27T03:45:44.942Z,100347.41
2023-03-27T03:47:49.259Z,100358.69
2023-03-27T03:49:52.156Z,100359.59
2023-03-27T03:52:03.447Z,100364.91
2023-03-27T03:54:09.273Z,100364.06
2023-03-27T03:56:13.323Z,100373.53
2023-03-27T03:58:16.565Z,100373.47
2023-03-27T04:00:22.859Z,100373.56
2023-03-27T04:02:30.588Z,100377.19
2023-03-27T04:04:46.164Z,100384.94
2023-03-27T04:06:50.123Z,100380.50
2023-03-27T04:08:53.780Z,100385.81
2023-03-27T04:11:11.465Z,100383.97
2023-03-27T04:13:40.705Z,100394.31
2023-03-27T04:15:55.558Z,100389.97
2023-03-27T04:18:11.323Z,100396.16
2023-03-27T04:20:17.286Z,100401.44
2023-03-27T04:22:22.710Z,100406.59
2023-03-27T04:24:25.751Z,100412.59
2023-03-27T04:26:29.799Z,100413.53
2023-03-27T04:28:58.689Z,100420.38
2023-03-27T04:31:20.036Z,100418.69
2023-03-27T04:33:52.550Z,100424.72
2023-03-27T04:36:15.845Z,100422.19
2023-03-27T04:38:28.015Z,100430.78
2023-03-27T04:40:34.881Z,100435.16
2023-03-27T04:42:42.483Z,100437.91
2023-03-27T04:44:47.860Z,100440.34
2023-03-27T04:46:51.773Z,100432.56
2023-03-27T04:48:54.740Z,100438.59
2023-03-27T04:51:18.082Z,100439.47
2023-03-27T04:53:21.329Z,100443.88
2023-03-27T04:55:26.697Z,100448.22
2023-03-27T04:57:30.901Z,100444.81
2023-03-27T04:59:37.042Z,100452.69
2023-03-27T05:02:01.577Z,100450.06
2023-03-27T05:04:10.688Z,100451.84
2023-03-27T05:06:28.733Z,100466.56
2023-03-27T05:08:31.843Z,100463.13
2023-03-27T05:10:38.461Z,100469.13
2023-03-27T05:12:44.766Z,100468.28
2023-03-27T05:14:50.169Z,100473.56
2023-03-27T05:17:26.137Z,100481.31
2023-03-27T05:19:30.331Z,100477.06
2023-03-27T05:21:37.271Z,100479.59
2023-03-27T05:23:40.832Z,100482.16
2023-03-27T05:25:45.345Z,100475.25
2023-03-27T05:28:09.667Z,100487.34
2023-03-27T05:30:14.372Z,100484.69
2023-03-27T05:32:17.653Z,100493.41
2023-03-27T05:34:28.521Z,100490.75
2023-03-27T05:36:32.973Z,100502.84
2023-03-27T05:38:37.823Z,100500.16
2023-03-27T05:41:02.391Z,100507.09
2023-03-27T05:43:07.060Z,100508.09
2023-03-27T05:45:10.757Z,100510.66
2023-03-27T05:47:16.584Z,100520.13
2023-03-27T05:49:21.877Z,100516.69
2023-03-27T05:51:31.593Z,100521.75
2023-03-27T05:53:36.282Z,100521.59
2023-03-27T05:56:03.209Z,100533.69
2023-03-27T05:58:14.863Z,100528.22
2023-03-27T06:00:24.576Z,100529.22
2023-03-27T06:02:28.232Z,100528.06
2023-03-27T06:04:34.310Z,100529.56
2023-03-27T06:06:50.738Z,100534.84
2023-03-27T06:08:54.061Z,100539.72
2023-03-27T06:10:57.544Z,100541.44
2023-03-27T06:13:12.299Z,100536.75
2023-03-27T06:15:26.359Z,100538.09
2023-03-27T06:17:52.175Z,100542.03
2023-03-27T06:19:56.403Z,100540.84
2023-03-27T06:21:59.635Z,100544.50
2023-03-27T06:24:02.758Z,100549.38
2023-03-27T06:26:07.647Z,100542.94
2023-03-27T06:28:12.667Z,100544.03
2023-03-27T06:30:25.796Z,100542.72
2023-03-27T06:32:54.072Z,100550.50
2023-03-27T06:34:57.276Z,100549.75
2023-03-27T06:37:21.154Z,100555.50
2023-03-27T06:39:24.246Z,100553.81
2023-03-27T06:41:28.894Z,100553.50
2023-03-27T06:43:48.358Z,100553.69
2023-03-27T06:46:05.127Z,100553.94
2023-03-27T06:48:41.694Z,100552.25
2023-03-27T06:50:45.391Z,100553.19
2023-03-27T06:52:51.664Z,100555.00
2023-03-27T06:55:20.996Z,100554.16
2023-03-27T06:57:31.390Z,100560.97
2023-03-27T06:59:37.413Z,100563.25
2023-03-27T07:01:40.404Z,100570.91
2023-03-27T07:04:16.689Z,100567.91
2023-03-27T07:06:32.270Z,100559.84
2023-03-27T07:08:42.501Z,100563.09
2023-03-27T07:10:48.758Z,100561.59
2023-03-27T07:13:01.153Z,100570.31
2023-03-27T07:15:06.611Z,100567.38
2023-03-27T07:17:10.642Z,100569.44
2023-03-27T07:19:32.845Z,100571.47
2023-03-27T07:21:42.148Z,100576.72
2023-03-27T07:23:47.289Z,100559.78
2023-03-27T07:25:58.747Z,100573.13
2023-03-27T07:28:27.468Z,100567.41
2023-03-27T07:30:31.878Z,100573.63
2023-03-27T07:32:37.506Z,100581.59
2023-03-27T07:34:42.729Z,100571.66
2023-03-27T07:37:00.803Z,100580.72
2023-03-27T07:39:05.650Z,100576.09
2023-03-27T07:41:11.359Z,100573.22
2023-03-27T07:43:14.215Z,100568.81
2023-03-27T07:45:20.705Z,100577.56
2023-03-27T07:47:27.078Z,100584.31
2023-03-27T07:49:39.489Z,100583.53
2023-03-27T07:51:46.589Z,100584.00
2023-03-27T07:53:53.984Z,100581.19
2023-03-27T07:56:10.464Z,100587.38
2023-03-27T07:58:14.298Z,100592.53
2023-03-27T08:00:22.789Z,100581.63
2023-03-27T08:02:39.183Z,100603.41
2023-03-27T08:04:42.336Z,100599.22
2023-03-27T08:06:46.684Z,100602.91
2023-03-27T08:08:55.289Z,100608.44
2023-03-27T08:11:02.357Z,100607.19
2023-03-27T08:13:12.528Z,100604.59
2023-03-27T08:15:15.856Z,100608.03
2023-03-27T08:17:21.374Z,100610.59
2023-03-27T08:19:26.824Z,100612.69
2023-03-27T08:21:35.296Z,100610.22
2023-03-27T08:23:38.700Z,100622.78
2023-03-27T08:25:44.373Z,100626.53
2023-03-27T08:27:47.510Z,100624.56
2023-03-27T08:29:52.151Z,100628.25
2023-03-27T08:31:55.347Z,100631.38
2023-03-27T08:33:59.798Z,100621.03
2023-03-27T08:36:10.577Z,100625.50
2023-03-27T08:38:25.728Z,100626.22
2023-03-27T08:40:50.034Z,100622.25
2023-03-27T08:43:05.461Z,100623.19
2023-03-27T08:45:14.563Z,100627.75
2023-03-27T08:47:27.854Z,100634.72
2023-03-27T08:49:41.497Z,100631.88
2023-03-27T08:52:00.721Z,100637.47
2023-03-27T08:54:07.277Z,100639.28
2023-03-27T08:56:15.155Z,100649.38
2023-03-27T08:58:20.901Z,100653.72
2023-03-27T09:00:33.560Z,100655.50
2023-03-27T09:02:57.262Z,100656.16
2023-03-27T09:05:05.774Z,100651.09
2023-03-27T09:07:20.492Z,100653.88
2023-03-27T09:09:55.827Z,100648.16
2023-03-27T09:12:05.245Z,100651.09
2023-03-27T09:14:22.919Z,100662.31
2023-03-27T09:16:27.590Z,100665.25
2023-03-27T09:18:36.516Z,100655.00
2023-03-27T09:20:47.293Z,100666.47
2023-03-27T09:23:00.339Z,100668.47
2023-03-27T09:25:25.609Z,100672.78
2023-03-27T09:27:36.433Z,100664.72
2023-03-27T09:30:19.600Z,100665.25
2023-03-27T09:32:33.530Z,100679.00
2023-03-27T09:34:37.164Z,100680.31
2023-03-27T09:36:40.129Z,100685.31
2023-03-27T09:38:50.927Z,100683.63
2023-03-27T09:41:03.190Z,100683.47
2023-03-27T09:43:10.561Z,100688.34
2023-03-27T09:45:16.257Z,100693.44
2023-03-27T09:47:34.636Z,100688.25
2023-03-27T09:49:40.809Z,100682.78
2023-03-27T09:51:50.054Z,100681.31
2023-03-27T09:54:07.970Z,100686.69
2023-03-27T09:56:14.662Z,100683.16
2023-03-27T09:58:30.721Z,100676.75
2023-03-27T10:00:36.468Z,100682.22
2023-03-27T10:02:42.471Z,100683.97
2023-03-27T10:04:59.301Z,100685.34
2023-03-27T10:07:25.004Z,100684.38
2023-03-27T10:10:05.487Z,100693.53
2023-03-27T10:12:19.241Z,100696.94
2023-03-27T10:14:26.216Z,100703.88
2023-03-27T10:16:31.013Z,100706.84
2023-03-27T10:18:44.905Z,100714.22
2023-03-27T10:20:52.095Z,100717.44
2023-03-27T10:22:57.842Z,100721.97
2023-03-27T10:25:17.698Z,100726.38
2023-03-27T10:27:31.007Z,100722.97
2023-03-27T10:29:53.403Z,100716.84
2023-03-27T10:31:57.899Z,100724.50
2023-03-27T10:34:30.313Z,100726.84
2023-03-27T10:36:55.590Z,100728.09
2023-03-27T10:39:06.806Z,100723.94
2023-03-27T10:41:28.528Z,100732.28
2023-03-27T10:43:39.919Z,100732.69
2023-03-27T10:45:49.009Z,100731.34
2023-03-27T10:47:55.033Z,100738.22
2023-03-27T10:50:05.084Z,100726.56
2023-03-27T10:52:22.987Z,100718.81
2023-03-27T10:54:47.052Z,100725.16
2023-03-27T10:57:00.379Z,100719.97
2023-03-27T10:59:09.021Z,100720.69
2023-03-27T11:01:19.503Z,100715.00
2023-03-27T11:03:32.206Z,100719.22
2023-03-27T11:05:41.644Z,100733.13
2023-03-27T11:07:52.404Z,100724.03
2023-03-27T11:10:02.840Z,100736.28
2023-03-27T11:12:11.790Z,100732.13
2023-03-27T11:14:30.907Z,100730.09
2023-03-27T11:16:38.795Z,100730.97
2023-03-27T11:18:47.180Z,100735.34
2023-03-27T11:20:56.719Z,100735.94
2023-03-27T11:23:10.399Z,100733.75
2023-03-27T11:25:34.748Z,100729.38
2023-03-27T11:27:41.144Z,100732.28
2023-03-27T11:29:49.278Z,100744.81
2023-03-27T11:31:53.671Z,100742.25
2023-03-27T11:34:12.550Z,100742.59
2023-03-27T11:36:34.862Z,100743.03
2023-03-27T11:39:12.264Z,100757.41
2023-03-27T11:41:20.499Z,100755.41
2023-03-27T11:43:25.812Z,100760.09
2023-03-27T11:45:38.559Z,100756.91
2023-03-27T11:47:55.663Z,100753.59
2023-03-27T11:50:11.628Z,100747.69
2023-03-27T11:52:27.688Z,100751.00
2023-03-27T11:54:45.602Z,100764.03
2023-03-27T11:56:58.178Z,100759.63
2023-03-27T11:59:41.672Z,100768.97
2023-03-27T12:01:50.416Z,100771.22
2023-03-27T12:04:18.051Z,100797.28
2023-03-27T12:06:47.227Z,100801.88
2023-03-27T12:09:02.767Z,100807.25
2023-03-27T12:11:14.153Z,100808.25
2023-03-27T12:13:58.093Z,100799.50
2023-03-27T12:16:36.347Z,100797.53
2023-03-27T12:19:00.498Z,100793.16
2023-03-27T12:21:25.135Z,100776.75
2023-03-27T12:23:51.752Z,100782.28
2023-03-27T12:26:23.872Z,100775.25
2023-03-27T12:28:49.145Z,100774.31
2023-03-27T12:31:23.664Z,100767.94
2023-03-27T12:33:47.627Z,100770.66
2023-03-27T12:35:53.672Z,100764.13
2023-03-27T12:37:59.804Z,100782.25
2023-03-27T12:40:15.368Z,100771.41
2023-03-27T12:42:43.934Z,100778.50
2023-03-27T12:45:04.565Z,100770.31
2023-03-27T12:47:17.674Z,100771.50
2023-03-27T12:49:53.448Z,100767.22
2023-03-27T12:52:05.787Z,100767.44
2023-03-27T12:54:28.525Z,100768.63
2023-03-27T12:56:37.410Z,100773.88
2023-03-27T12:58:41.552Z,100777.38
2023-03-27T13:01:12.652Z,100771.47
2023-03-27T13:03:45.001Z,100756.34
2023-03-27T13:06:01.304Z,100779.88
2023-03-27T13:08:21.391Z,100798.09
2023-03-27T13:10:55.704Z,100816.63
2023-03-27T13:13:14.289Z,100819.63
2023-03-27T13:15:27.467Z,100827.97
2023-03-27T13:17:44.304Z,100817.09
2023-03-27T13:19:56.403Z,100818.75
2023-03-27T13:22:28.112Z,100830.09
2023-03-27T13:24:50.442Z,100818.56
2023-03-27T13:27:10.134Z,100825.34
2023-03-27T13:29:17.721Z,100819.94
2023-03-27T13:31:57.023Z,100815.84
2023-03-27T13:34:34.375Z,100816.16
2023-03-27T13:36:43.157Z,100817.00
2023-03-27T13:39:00.389Z,100817.09
2023-03-27T13:41:52.992Z,100820.03
2023-03-27T13:44:21.067Z,100820.53
2023-03-27T13:46:25.700Z,100823.53
2023-03-27T13:49:19.371Z,100826.22
2023-03-27T13:51:56.810Z,100822.66
2023-03-27T13:54:51.188Z,100836.88
2023-03-27T13:57:07.000Z,100827.84
2023-03-27T13:59:58.651Z,100835.72
2023-03-27T14:02:47.934Z,100840.50
2023-03-27T14:05:08.066Z,100835.38
2023-03-27T14:07:47.086Z,100839.78
2023-03-27T14:10:18.491Z,100830.47
2023-03-27T14:12:42.197Z,100838.63
2023-03-27T14:15:28.153Z,100840.63
2023-03-27T14:18:01.888Z,100844.00
2023-03-27T14:20:15.788Z,100849.34
2023-03-27T14:22:24.010Z,100858.34
2023-03-27T14:24:36.792Z,100870.97
2023-03-27T14:26:55.953Z,100868.81
2023-03-27T14:29:02.288Z,100880.72
2023-03-27T14:31:19.336Z,100894.84
2023-03-27T14:33:52.429Z,100892.47
2023-03-27T14:36:06.875Z,100876.78
2023-03-27T14:38:18.580Z,100871.56
2023-03-27T14:40:24.062Z,100857.41
2023-03-27T14:42:33.092Z,100853.56
2023-03-27T14:44:40.864Z,100852.59
2023-03-27T14:46:50.539Z,100849.16
2023-03-27T14:49:02.739Z,100852.59
2023-03-27T14:51:13.450Z,100846.78
2023-03-27T14:53:19.693Z,100848.97
2023-03-27T14:55:42.543Z,100848.13
2023-03-27T14:58:11.473Z,100856.19
2023-03-27T15:00:20.320Z,100842.84
2023-03-27T15:02:29.389Z,100840.88
2023-03-27T15:04:38.222Z,100846.38
2023-03-27T15:06:45.372Z,100843.91
2023-03-27T15:09:05.510Z,100852.75
2023-03-27T15:11:41.006Z,100852.53
2023-03-27T15:13:52.748Z,100861.25
2023-03-27T15:16:16.117Z,100859.81
2023-03-27T15:18:22.489Z,100862.19
2023-03-27T15:20:28.004Z,100868.59
2023-03-27T15:22:35.838Z,100874.53
2023-03-27T15:24:43.195Z,100880.94
2023-03-27T15:26:47.860Z,100881.78
2023-03-27T15:28:58.568Z,100871.44
2023-03-27T15:31:03.364Z,100870.53
2023-03-27T15:33:12.530Z,100870.97
2023-03-27T15:35:19.867Z,100867.75
2023-03-27T15:37:25.506Z,100863.75
2023-03-27T15:39:28.883Z,100866.97
2023-03-27T15:41:45.069Z,100871.44
2023-03-27T15:43:48.259Z,100878.41
2023-03-27T15:46:04.149Z,100876.44
2023-03-27T15:48:19.096Z,100873.19
2023-03-27T15:50:27.009Z,100871.66
2023-03-27T15:52:31.910Z,100861.28
2023-03-27T15:54:36.060Z,100874.41
2023-03-27T15:56:41.621Z,100870.69
2023-03-27T15:58:48.521Z,100879.91
2023-03-27T16:00:53.860Z,100885.03
2023-03-27T16:02:57.664Z,100880.59
2023-03-27T16:05:06.622Z,100893.06
2023-03-27T16:07:15.536Z,100884.53
2023-03-27T16:09:24.601Z,100887.88
2023-03-27T16:11:36.794Z,100887.66
2023-03-27T16:13:53.169Z,100887.69
2023-03-27T16:16:01.170Z,100888.50
2023-03-27T16:18:18.427Z,100892.00
2023-03-27T16:20:37.259Z,100892.13
2023-03-27T16:22:41.061Z,100897.19
2023-03-27T16:24:43.975Z,100894.81
2023-03-27T16:26:46.900Z,100902.34
2023-03-27T16:28:49.787Z,100907.16
2023-03-27T16:30:53.098Z,100909.09
2023-03-27T16:32:56.574Z,100911.25
2023-03-27T16:34:59.725Z,100927.63
2023-03-27T16:37:04.193Z,100933.75
2023-03-27T16:39:09.248Z,100922.63
2023-03-27T16:41:14.781Z,100928.28
2023-03-27T16:43:17.823Z,100938.34
2023-03-27T16:45:21.835Z,100941.81
2023-03-27T16:47:25.009Z,100947.03
2023-03-27T16:49:28.019Z,100956.03
2023-03-27T16:51:31.265Z,100955.16
2023-03-27T16:53:35.518Z,100948.91
2023-03-27T16:55:38.408Z,100967.47
2023-03-27T16:57:41.773Z,100965.13
2023-03-27T16:59:44.679Z,100968.72
2023-03-27T17:01:47.673Z,100975.31
2023-03-27T17:03:50.952Z,100979.81
2023-03-27T17:05:54.327Z,100974.72
2023-03-27T17:07:57.757Z,100984.50
2023-03-27T17:10:03.817Z,100985.16
2023-03-27T17:12:07.166Z,100994.94
2023-03-27T17:14:10.659Z,100994.56
2023-03-27T17:16:13.688Z,100993.84
2023-03-27T17:18:16.696Z,101007.00
2023-03-27T17:20:20.239Z,101002.97
2023-03-27T17:22:23.119Z,101008.16
2023-03-27T17:24:26.378Z,101021.81
2023-03-27T17:26:32.889Z,101021.00
2023-03-27T17:28:36.353Z,101031.38
2023-03-27T17:30:46.910Z,101028.22
2023-03-27T17:32:55.925Z,101028.28
2023-03-27T17:34:59.137Z,101036.09
2023-03-27T17:37:02.092Z,101033.66
2023-03-27T17:39:07.234Z,101034.47
2023-03-27T17:41:12.809Z,101037.31
2023-03-27T17:43:17.494Z,101040.16
2023-03-27T17:45:23.946Z,101041.66
2023-03-27T17:47:27.132Z,101043.59
2023-03-27T17:49:31.923Z,101050.59
2023-03-27T17:51:35.425Z,101046.13
2023-03-27T17:53:38.941Z,101051.38
2023-03-27T17:55:41.995Z,101049.66
2023-03-27T17:57:47.490Z,101054.94
2023-03-27T17:59:56.840Z,101055.19
2023-03-27T18:02:00.880Z,101063.31
2023-03-27T18:04:06.119Z,101069.34
2023-03-27T18:06:09.547Z,101071.16
2023-03-27T18:08:14.412Z,101070.38
2023-03-27T18:10:20.315Z,101059.00
2023-03-27T18:12:23.290Z,101070.44
2023-03-27T18:14:27.343Z,101076.59
2023-03-27T18:16:31.698Z,101079.16
2023-03-27T18:18:36.652Z,101079.25
2023-03-27T18:20:39.988Z,101076.66
2023-03-27T18:22:43.517Z,101086.38
2023-03-27T18:24:46.510Z,101078.41
2023-03-27T18:26:49.630Z,101084.50
2023-03-27T18:28:52.863Z,101084.66
2023-03-27T18:30:59.927Z,101088.03
2023-03-27T18:33:05.248Z,101096.78
2023-03-27T18:35:13.148Z,101088.91
2023-03-27T18:37:16.729Z,101101.41
2023-03-27T18:39:47.899Z,101107.66
2023-03-27T18:41:53.274Z,101103.41
2023-03-27T18:43:56.250Z,101111.97
2023-03-27T18:46:02.301Z,101106.03
2023-03-27T18:48:08.162Z,101112.09
2023-03-27T18:50:12.743Z,101121.63
2023-03-27T18:52:15.658Z,101120.69
2023-03-27T18:54:19.004Z,101127.69
2023-03-27T18:56:22.025Z,101120.97
2023-03-27T18:58:26.704Z,101126.13
2023-03-27T19:00:29.633Z,101129.63
2023-03-27T19:02:34.314Z,101132.41
2023-03-27T19:04:38.805Z,101135.13
2023-03-27T19:06:41.734Z,101126.38
2023-03-27T19:08:45.439Z,101138.63
2023-03-27T19:10:48.799Z,101130.81
2023-03-27T19:12:54.111Z,101139.47
2023-03-27T19:15:20.256Z,101134.28
2023-03-27T19:17:41.920Z,101141.31
2023-03-27T19:20:06.264Z,101141.28
2023-03-27T19:22:25.121Z,101134.44
2023-03-27T19:24:33.634Z,101143.34
2023-03-27T19:26:37.766Z,101147.63
2023-03-27T19:28:41.014Z,101148.56
2023-03-27T19:30:44.595Z,101147.69
2023-03-27T19:32:48.132Z,101154.72
2023-03-27T19:34:51.388Z,101154.03
2023-03-27T19:36:56.029Z,101148.66
2023-03-27T19:38:59.510Z,101146.84
2023-03-27T19:41:02.631Z,101152.88
2023-03-27T19:43:08.396Z,101153.75
2023-03-27T19:45:13.625Z,101150.31
2023-03-27T19:47:16.551Z,101153.03
2023-03-27T19:49:22.782Z,101150.38
2023-03-27T19:51:46.166Z,101151.22
2023-03-27T19:53:51.241Z,101159.09
2023-03-27T19:55:57.351Z,101164.34
2023-03-27T19:58:02.089Z,101165.22
2023-03-27T20:00:12.851Z,101174.84
2023-03-27T20:02:18.824Z,101172.28
2023-03-27T20:04:25.399Z,101169.75
2023-03-27T20:06:29.489Z,101173.25
2023-03-27T20:08:39.854Z,101176.72
2023-03-27T20:10:48.652Z,101177.69
2023-03-27T20:12:52.137Z,101183.88
2023-03-27T20:15:11.195Z,101170.69
2023-03-27T20:17:35.055Z,101176.84
2023-03-27T20:19:38.230Z,101182.94
2023-03-27T20:21:46.338Z,101186.50
2023-03-27T20:23:53.671Z,101183.03
2023-03-27T20:26:04.004Z,101188.25
2023-03-27T20:28:09.761Z,101186.59
2023-03-27T20:30:14.637Z,101191.84
2023-03-27T20:32:17.660Z,101196.25
2023-03-27T20:34:22.761Z,101198.88
2023-03-27T20:36:26.418Z,101199.78
2023-03-27T20:38:31.556Z,101187.56
2023-03-27T20:40:52.805Z,101194.53
2023-03-27T20:43:05.835Z,101195.47
2023-03-27T20:45:12.004Z,101199.81
2023-03-27T20:47:19.033Z,101203.34
2023-03-27T20:49:40.026Z,101202.53
2023-03-27T20:51:44.325Z,101204.34
2023-03-27T20:53:54.151Z,101211.25
2023-03-27T20:56:00.076Z,101206.91
2023-03-27T20:58:06.769Z,101207.81
2023-03-27T21:00:12.019Z,101205.16
2023-03-27T21:02:17.754Z,101207.00
2023-03-27T21:04:21.497Z,101207.91
2023-03-27T21:06:25.898Z,101204.34
2023-03-27T21:08:31.398Z,101210.41
2023-03-27T21:10:34.608Z,101213.13
2023-03-27T21:12:38.758Z,101214.84
2023-03-27T21:14:44.760Z,101210.47
2023-03-27T21:16:48.676Z,101219.19
2023-03-27T21:18:51.601Z,101216.56
2023-03-27T21:20:54.656Z,101226.34
2023-03-27T21:22:57.861Z,101221.00
2023-03-27T21:25:00.906Z,101224.47
2023-03-27T21:27:04.314Z,101219.25
2023-03-27T21:29:10.533Z,101219.25
2023-03-27T21:31:15.056Z,101223.63
2023-03-27T21:33:18.615Z,101226.25
2023-03-27T21:35:22.815Z,101225.47
2023-03-27T21:37:25.911Z,101229.75
2023-03-27T21:39:28.786Z,101230.69
2023-03-27T21:41:32.134Z,101235.06
2023-03-27T21:43:35.378Z,101229.81
2023-03-27T21:45:38.454Z,101228.94
2023-03-27T21:47:47.450Z,101238.53
2023-03-27T21:49:50.960Z,101238.53
2023-03-27T21:51:53.755Z,101238.53
2023-03-27T21:53:56.804Z,101231.63
2023-03-27T21:55:59.955Z,101235.09
2023-03-27T21:58:02.945Z,101238.59
2023-03-27T22:00:11.613Z,101235.09
2023-03-27T22:02:17.874Z,101242.09
2023-03-27T22:04:22.454Z,101240.34
2023-03-27T22:06:26.185Z,101236.84
2023-03-27T22:08:29.073Z,101238.63
2023-03-27T22:10:32.253Z,101242.09
2023-03-27T22:12:35.833Z,101240.38
2023-03-27T22:14:38.729Z,101239.53
2023-03-27T22:16:42.196Z,101246.50
2023-03-27T22:18:45.858Z,101245.59
2023-03-27T22:20:50.934Z,101258.69
2023-03-27T22:22:53.826Z,101259.53
2023-03-27T22:24:56.718Z,101263.03
2023-03-27T22:26:59.612Z,101265.66
2023-03-27T22:29:02.631Z,101266.53
2023-03-27T22:31:05.825Z,101272.66
2023-03-27T22:33:08.752Z,101278.75
2023-03-27T22:35:12.068Z,101277.00
2023-03-27T22:37:16.757Z,101284.84
2023-03-27T22:39:19.688Z,101279.63
2023-03-27T22:41:22.558Z,101283.97
2023-03-27T22:43:25.706Z,101284.88
2023-03-27T22:45:28.567Z,101284.84
2023-03-27T22:47:32.407Z,101290.94
2023-03-27T22:49:36.371Z,101288.31
2023-03-27T22:51:40.481Z,101290.94
2023-03-27T22:53:44.898Z,101290.06
2023-03-27T22:55:49.537Z,101292.69
2023-03-27T22:57:52.449Z,101295.31
2023-03-27T22:59:55.282Z,101301.41
2023-03-27T23:01:58.260Z,101299.63
2023-03-27T23:04:01.174Z,101306.59
2023-03-27T23:06:04.464Z,101310.13
2023-03-27T23:08:07.513Z,101310.09
2023-03-27T23:10:12.290Z,101314.47
2023-03-27T23:12:15.421Z,101317.06
2023-03-27T23:14:18.336Z,101316.19
2023-03-27T23:16:21.338Z,101311.84
2023-03-27T23:18:25.352Z,101320.53
2023-03-27T23:20:28.600Z,101313.56
2023-03-27T23:22:31.837Z,101318.75
2023-03-27T23:24:35.016Z,101319.63
2023-03-27T23:26:40.459Z,101317.84
2023-03-27T23:28:44.084Z,101325.69
2023-03-27T23:30:53.622Z,101322.16
2023-03-27T23:32:56.678Z,101322.19
2023-03-27T23:34:59.953Z,101319.63
2023-03-27T23:37:03.046Z,101321.31
2023-03-27T23:39:05.988Z,101320.47
2023-03-27T23:41:10.041Z,101321.34
2023-03-27T23:43:14.318Z,101318.72
2023-03-27T23:45:17.622Z,101328.19
2023-03-27T23:47:20.465Z,101330.84
2023-03-27T23:49:23.682Z,101336.09
2023-03-27T23:51:26.542Z,101338.72
2023-03-27T23:53:30.494Z,101339.63
2023-03-27T23:55:33.443Z,101340.50
2023-03-27T23:57:36.449Z,101341.34
2023-03-27T23:59:40.956Z,101342.22
